Kitty Hawk, North Carolina
Current Conditions -  °F | °C
As of 4:55 AM on Sunday 21 Dec 2014 (Local Time) from KFFA Reporting Station
Clear Clear  
Wind Chill: 36°   Ceiling: Unl
Heat Index: 40°   Visibility: 10mi
Dew Point: 34°   Wind: 6mph
Humidity: 78%   Direction: 20°NNE
Pressure: 30.25"   Gusts: NA
Location:  36.06°N, 75.71°W
Report Text: KFFA 210955Z AUTO 02005KT 10SM CLR 05/01 A3025 RMK AO2 T00460010
Loading
Personal Weather Stations






























Interactive Weather Map New forecast layout! Learn more

10-Day Weather Forecast

Advertisements
Track Severe Weather on mobile